Time;durP1;ratioP1;P1;durP2;ratioP2;P2;SDS_P1;SDS_P2;PMS_P1;PMS_P2;Temp;Humidity;BMP_temperature;BMP_pressure;BME280_temperature;BME280_humidity;BME280_pressure;Samples;Min_cycle;Max_cycle;Signal;HPM_P1;HPM_P2
2022/09/02 00:01:29;;;;;;;3.13;1.15;;;14.70;1.00;;;;;;5004343;28;20202;-61
2022/09/02 00:04:00;;;;;;;4.85;1.20;;;15.00;1.00;;;;;;5005282;28;20665;-61
2022/09/02 00:06:28;;;;;;;1.95;1.00;;;13.60;1.00;;;;;;5000258;28;20221;-61
2022/09/02 00:08:55;;;;;;;1.10;1.00;;;14.80;1.00;;;;;;5003490;28;20289;-61
2022/09/02 00:11:26;;;;;;;2.22;0.98;;;14.80;1.00;;;;;;5010416;28;20204;-61
2022/09/02 00:13:53;;;;;;;1.63;0.90;;;14.80;1.00;;;;;;4980028;28;20214;-61
2022/09/02 00:16:22;;;;;;;1.05;1.02;;;14.90;1.00;;;;;;5006446;28;20217;-61
2022/09/02 00:18:50;;;;;;;3.42;1.20;;;14.90;1.00;;;;;;5006554;28;20198;-61
2022/09/02 00:21:19;;;;;;;1.10;1.00;;;14.90;1.00;;;;;;5001010;28;20198;-61
2022/09/02 00:23:46;;;;;;;1.10;1.00;;;14.60;35.30;;;;;;5004479;28;20225;-61
2022/09/02 00:26:13;;;;;;;1.52;1.05;;;14.70;1.00;;;;;;5013791;28;20202;-61
2022/09/02 00:28:41;;;;;;;1.10;1.08;;;14.70;1.00;;;;;;4988636;28;21052;-61
2022/09/02 00:31:07;;;;;;;0.90;0.90;;;14.80;1.00;;;;;;5010549;28;20225;-62
2022/09/02 00:33:34;;;;;;;4.60;1.08;;;14.80;10.10;;;;;;5009568;28;20668;-61
2022/09/02 00:36:03;;;;;;;1.33;0.82;;;14.50;98.30;;;;;;5012360;28;20202;-61
2022/09/02 00:38:34;;;;;;;0.80;0.80;;;14.50;99.90;;;;;;5002374;28;20206;-61
2022/09/02 00:41:04;;;;;;;1.13;0.93;;;14.40;99.90;;;;;;5006910;28;20209;-61
2022/09/02 00:43:44;;;;;;;1.38;1.08;;;14.60;99.90;;;;;;4985878;28;20244;-62
2022/09/02 00:46:13;;;;;;;3.53;0.98;;;14.80;99.90;;;;;;5009512;28;20206;-61
2022/09/02 00:48:47;;;;;;;2.03;0.90;;;14.50;99.90;;;;;;5011455;28;20213;-61
2022/09/02 00:51:15;;;;;;;2.65;0.88;;;14.70;99.90;;;;;;5010908;28;20910;-61
2022/09/02 00:53:46;;;;;;;1.00;0.90;;;14.60;99.90;;;;;;4997735;28;20245;-61
2022/09/02 00:56:17;;;;;;;2.90;0.98;;;14.80;99.90;;;;;;5011480;28;20202;-62
2022/09/02 00:58:44;;;;;;;0.80;0.80;;;14.60;99.90;;;;;;4983936;28;20222;-61
2022/09/02 01:01:11;;;;;;;1.27;1.00;;;14.50;99.90;;;;;;5008800;28;20576;-61
2022/09/02 01:03:38;;;;;;;1.50;1.08;;;16.30;99.90;;;;;;5002105;28;20229;-61
2022/09/02 01:06:06;;;;;;;1.00;1.00;;;14.60;99.90;;;;;;5002417;28;20395;-61
2022/09/02 01:08:38;;;;;;;1.90;1.00;;;14.50;1.00;;;;;;5000779;28;20218;-61
2022/09/02 01:11:06;;;;;;;2.25;1.02;;;14.50;99.90;;;;;;5008605;28;20549;-61
2022/09/02 01:13:37;;;;;;;0.90;0.90;;;14.40;1.00;;;;;;4999399;28;20210;-61
2022/09/02 01:16:11;;;;;;;1.17;1.08;;;14.50;99.90;;;;;;4997171;28;20206;-61
2022/09/02 01:18:38;;;;;;;1.05;1.05;;;14.70;1.00;;;;;;5004771;28;20771;-61
2022/09/02 01:21:06;;;;;;;2.53;1.13;;;14.50;99.90;;;;;;5010747;28;20198;-61
2022/09/02 01:23:35;;;;;;;0.82;0.82;;;14.40;99.90;;;;;;4994739;28;21148;-61
2022/09/02 01:26:03;;;;;;;0.98;0.93;;;14.40;99.90;;;;;;4996474;28;20209;-61
2022/09/02 01:28:32;;;;;;;1.15;1.00;;;14.30;99.90;;;;;;5002217;28;20198;-61
2022/09/02 01:30:59;;;;;;;4.50;1.20;;;14.10;1.00;;;;;;4988903;28;20209;-61
2022/09/02 01:33:27;;;;;;;1.90;1.02;;;13.00;1.00;;;;;;5006952;28;20224;-61
2022/09/02 01:35:54;;;;;;;0.77;0.77;;;14.20;1.00;;;;;;5009161;28;20198;-61
2022/09/02 01:38:22;;;;;;;0.80;0.80;;;14.50;1.00;;;;;;5004483;28;20232;-61
2022/09/02 01:40:51;;;;;;;1.35;1.08;;;14.30;1.00;;;;;;5004974;28;20198;-61
2022/09/02 01:43:21;;;;;;;1.30;1.10;;;14.30;1.00;;;;;;4997142;28;20202;-62
2022/09/02 01:45:49;;;;;;;1.23;1.00;;;15.10;1.00;;;;;;4982729;28;20207;-61
2022/09/02 01:48:17;;;;;;;0.95;0.90;;;13.80;1.00;;;;;;4997496;28;20308;-61
2022/09/02 01:50:47;;;;;;;3.20;1.17;;;14.10;1.00;;;;;;5009907;28;20199;-61
2022/09/02 01:53:14;;;;;;;1.00;0.85;;;13.90;50.40;;;;;;5008758;28;20186;-61
2022/09/02 01:55:41;;;;;;;2.83;1.00;;;14.20;1.00;;;;;;4998649;28;20692;-61
2022/09/02 01:58:10;;;;;;;2.47;1.08;;;14.10;1.00;;;;;;5007377;28;20209;-61
2022/09/02 02:00:36;;;;;;;1.52;1.10;;;14.00;1.00;;;;;;4979252;28;20215;-61
2022/09/02 02:03:03;;;;;;;0.98;0.82;;;14.00;1.00;;;;;;5010536;28;20213;-61
2022/09/02 02:05:32;;;;;;;1.10;1.00;;;13.90;99.90;;;;;;5002661;28;20229;-61
2022/09/02 02:07:59;;;;;;;5.38;1.02;;;14.00;99.90;;;;;;5009967;28;20194;-61
2022/09/02 02:10:26;;;;;;;0.80;0.80;;;13.80;99.90;;;;;;4997749;28;20198;-61
2022/09/02 02:12:53;;;;;;;1.08;0.98;;;13.80;99.90;;;;;;5010423;28;20194;-61
2022/09/02 02:15:22;;;;;;;1.15;0.85;;;13.80;1.00;;;;;;4982176;28;20218;-61
2022/09/02 02:17:49;;;;;;;1.00;0.90;;;13.60;1.00;;;;;;5007198;28;20205;-61
2022/09/02 02:20:20;;;;;;;1.60;1.10;;;13.80;1.00;;;;;;4998214;28;20264;-61
2022/09/02 02:22:48;;;;;;;1.20;1.10;;;13.70;1.00;;;;;;5006327;28;20209;-61
2022/09/02 02:25:15;;;;;;;1.10;1.00;;;13.80;1.00;;;;;;5009320;28;20229;-62
2022/09/02 02:27:43;;;;;;;1.10;1.00;;;14.00;99.90;;;;;;4997424;28;20242;-61
2022/09/02 02:30:12;;;;;;;2.13;1.27;;;13.70;7.40;;;;;;5005935;28;20786;-61
2022/09/02 02:32:40;;;;;;;0.82;0.82;;;13.70;99.90;;;;;;4978853;28;20199;-61
2022/09/02 02:35:08;;;;;;;1.40;1.00;;;13.70;99.90;;;;;;5000637;28;20293;-61
2022/09/02 02:37:35;;;;;;;1.02;0.93;;;13.70;52.40;;;;;;5003153;28;20428;-61
2022/09/02 02:40:02;;;;;;;1.15;1.05;;;13.50;99.90;;;;;;5007044;28;20222;-61
2022/09/02 02:42:29;;;;;;;1.27;0.90;;;13.70;99.90;;;;;;4997805;28;20212;-61
2022/09/02 02:44:56;;;;;;;3.28;1.27;;;13.80;99.90;;;;;;5008283;28;20218;-61
2022/09/02 02:47:23;;;;;;;0.98;0.90;;;13.80;99.90;;;;;;4984206;28;20218;-61
2022/09/02 02:49:51;;;;;;;1.02;1.00;;;13.80;99.90;;;;;;4996603;28;20209;-61
2022/09/02 02:52:18;;;;;;;1.40;1.30;;;13.70;45.00;;;;;;5004848;28;20202;-61
2022/09/02 02:54:45;;;;;;;0.90;0.90;;;13.80;1.00;;;;;;5004768;28;20202;-61
2022/09/02 02:57:12;;;;;;;2.15;1.27;;;14.00;52.20;;;;;;4998686;28;20211;-61
2022/09/02 02:59:39;;;;;;;2.10;0.90;;;13.70;1.00;;;;;;5000734;28;20282;-61
2022/09/02 03:02:06;;;;;;;4.22;1.10;;;14.60;7.40;;;;;;4979141;28;20202;-61
2022/09/02 03:04:33;;;;;;;1.20;1.10;;;13.30;99.90;;;;;;4997390;28;20356;-61
2022/09/02 03:07:02;;;;;;;2.85;1.65;;;13.60;99.90;;;;;;5003106;28;20202;-61
2022/09/02 03:09:30;;;;;;;2.65;1.20;;;13.70;99.90;;;;;;5005632;28;20206;-61
2022/09/02 03:11:57;;;;;;;2.88;1.20;;;13.10;99.90;;;;;;4995420;28;20615;-61
2022/09/02 03:14:25;;;;;;;1.15;1.05;;;13.50;99.90;;;;;;5008801;28;20230;-61
2022/09/02 03:16:52;;;;;;;4.80;1.45;;;15.00;1.00;;;;;;4979606;28;22206;-61
2022/09/02 03:19:18;;;;;;;1.20;1.10;;;13.50;1.00;;;;;;5004800;28;20199;-61
2022/09/02 03:21:45;;;;;;;1.30;1.20;;;13.40;1.00;;;;;;4995348;28;20202;-61
2022/09/02 03:24:13;;;;;;;1.35;1.10;;;13.50;1.00;;;;;;5008164;28;20230;-61
2022/09/02 03:26:42;;;;;;;1.20;1.10;;;13.40;1.00;;;;;;5002171;28;20240;-61
2022/09/02 03:29:09;;;;;;;1.05;0.98;;;13.40;1.00;;;;;;4996510;28;20198;-61
2022/09/02 03:31:36;;;;;;;1.25;1.15;;;9.70;99.90;;;;;;4980225;28;20215;-61
2022/09/02 03:34:04;;;;;;;1.30;1.20;;;13.20;99.90;;;;;;4998889;28;20226;-61
2022/09/02 03:36:34;;;;;;;1.33;1.23;;;13.40;99.90;;;;;;4996010;28;20346;-61
2022/09/02 03:39:01;;;;;;;1.73;1.20;;;13.50;1.00;;;;;;5004156;28;20202;-61
2022/09/02 03:41:30;;;;;;;1.40;1.27;;;13.30;99.90;;;;;;5005096;28;20276;-61
2022/09/02 03:43:57;;;;;;;1.40;1.08;;;13.30;1.00;;;;;;4994804;28;20212;-61
2022/09/02 03:46:24;;;;;;;2.60;1.25;;;13.30;1.00;;;;;;5001643;28;20206;-61
2022/09/02 03:48:51;;;;;;;1.42;1.30;;;13.20;1.00;;;;;;4974998;28;21266;-61
2022/09/02 03:51:19;;;;;;;1.33;1.23;;;13.90;1.00;;;;;;5001252;28;20202;-61
2022/09/02 03:53:45;;;;;;;2.88;1.30;;;13.20;1.00;;;;;;4991916;28;20206;-61
2022/09/02 03:56:15;;;;;;;2.70;1.15;;;13.20;1.00;;;;;;5003071;28;20202;-61
2022/09/02 03:58:44;;;;;;;1.20;1.10;;;13.20;1.00;;;;;;5003573;28;20341;-61
2022/09/02 04:01:15;;;;;;;1.58;1.30;;;13.20;65.10;;;;;;4990788;28;20197;-61
2022/09/02 04:03:42;;;;;;;1.38;1.27;;;15.90;1.00;;;;;;4978926;28;20805;-61
2022/09/02 04:06:11;;;;;;;1.50;1.40;;;13.10;1.00;;;;;;5002420;28;20233;-61
2022/09/02 04:08:38;;;;;;;3.42;1.48;;;12.80;99.90;;;;;;4995061;28;20798;-61
2022/09/02 04:11:07;;;;;;;1.33;1.23;;;13.00;99.90;;;;;;5008345;28;20199;-61
2022/09/02 04:13:35;;;;;;;1.52;1.38;;;12.90;99.90;;;;;;4999921;28;20872;-61
2022/09/02 04:16:09;;;;;;;1.50;1.20;;;12.90;11.40;;;;;;4993265;28;20210;-61
2022/09/02 04:18:36;;;;;;;1.27;1.17;;;13.00;1.00;;;;;;4999791;28;20217;-60
2022/09/02 04:21:03;;;;;;;4.40;1.50;;;12.90;1.00;;;;;;4980944;28;20297;-61
2022/09/02 04:23:30;;;;;;;1.60;1.38;;;12.80;99.90;;;;;;5010413;28;20621;-61
2022/09/02 04:25:57;;;;;;;2.15;1.83;;;13.00;1.00;;;;;;4997447;28;20225;-61
2022/09/02 04:28:24;;;;;;;1.65;1.48;;;12.90;1.00;;;;;;4965839;28;20696;-61
2022/09/02 04:30:51;;;;;;;1.33;1.23;;;12.70;99.90;;;;;;4958513;28;20204;-61
2022/09/02 04:33:19;;;;;;;1.30;1.20;;;12.90;99.90;;;;;;4966408;28;20230;-61
2022/09/02 04:35:48;;;;;;;2.38;1.42;;;12.90;99.90;;;;;;4940903;28;21199;-61
2022/09/02 04:38:15;;;;;;;2.05;1.50;;;12.90;99.90;;;;;;4964034;28;20199;-61
2022/09/02 04:40:44;;;;;;;2.17;1.23;;;12.80;1.00;;;;;;4949328;28;21145;-61
2022/09/02 04:43:11;;;;;;;1.40;1.30;;;12.80;1.00;;;;;;4963610;28;20200;-61
2022/09/02 04:45:39;;;;;;;1.77;1.38;;;12.80;1.00;;;;;;4964202;28;20242;-60
2022/09/02 04:48:06;;;;;;;1.27;1.17;;;13.50;91.00;;;;;;4950907;28;20270;-61
2022/09/02 04:50:36;;;;;;;2.53;1.20;;;12.80;1.00;;;;;;4955857;28;20227;-61
2022/09/02 04:53:04;;;;;;;2.53;1.50;;;12.60;9.40;;;;;;4945478;28;20724;-61
2022/09/02 04:55:31;;;;;;;1.65;1.33;;;12.90;99.90;;;;;;4951096;28;20965;-61
2022/09/02 04:57:59;;;;;;;1.73;1.52;;;12.90;3.50;;;;;;4963429;28;20236;-61
2022/09/02 05:00:26;;;;;;;1.95;1.30;;;13.10;99.90;;;;;;4953693;28;20200;-61
2022/09/02 05:02:54;;;;;;;5.03;1.42;;;12.90;99.90;;;;;;4956379;28;20289;-61
2022/09/02 05:05:21;;;;;;;1.60;1.38;;;12.50;99.90;;;;;;4959109;28;20290;-61
2022/09/02 05:07:49;;;;;;;1.75;1.60;;;12.90;99.90;;;;;;4925388;28;20617;-61
2022/09/02 05:10:16;;;;;;;1.50;1.40;;;13.00;1.00;;;;;;4967107;28;20223;-61
2022/09/02 05:12:43;;;;;;;5.60;1.52;;;14.90;1.00;;;;;;4957659;28;20339;-61
2022/09/02 05:15:11;;;;;;;1.77;1.38;;;13.00;1.00;;;;;;4974566;28;20204;-61
2022/09/02 05:17:38;;;;;;;1.77;1.35;;;13.20;1.00;;;;;;4956449;28;20242;-61
2022/09/02 05:20:07;;;;;;;1.38;1.27;;;13.10;1.00;;;;;;4962612;28;20222;-61
2022/09/02 05:22:34;;;;;;;1.75;1.50;;;13.10;1.00;;;;;;4952968;28;20226;-61
2022/09/02 05:25:04;;;;;;;2.42;1.60;;;13.10;1.00;;;;;;4961054;28;20229;-61
2022/09/02 05:34:03;;;;;;;3.03;1.58;;;13.10;1.00;;;;;;4995470;28;20621;-61
2022/09/02 05:36:31;;;;;;;1.60;1.48;;;13.20;1.00;;;;;;5010845;28;20209;-61
2022/09/02 05:38:58;;;;;;;1.55;1.45;;;13.80;1.00;;;;;;4984784;28;20921;-61
2022/09/02 05:41:27;;;;;;;1.38;1.20;;;13.30;1.00;;;;;;5011379;28;20202;-60
2022/09/02 05:43:57;;;;;;;3.35;1.35;;;13.30;1.00;;;;;;4997915;28;20198;-61
2022/09/02 05:46:25;;;;;;;1.40;1.20;;;13.30;1.00;;;;;;5008888;28;20629;-61
2022/09/02 05:49:06;;;;;;;3.58;1.55;;;13.30;1.00;;;;;;4993999;28;20210;-61
2022/09/02 05:51:39;;;;;;;2.30;1.38;;;13.40;1.00;;;;;;5010287;28;20214;-61
2022/09/02 05:54:08;;;;;;;1.80;1.25;;;13.40;1.00;;;;;;4984454;28;20268;-61
2022/09/02 05:56:37;;;;;;;2.95;1.50;;;13.40;1.00;;;;;;5010290;28;20210;-61
2022/09/02 05:59:05;;;;;;;3.10;1.30;;;13.30;1.00;;;;;;4994982;28;20622;-61
2022/09/02 06:01:32;;;;;;;2.72;1.48;;;13.50;1.00;;;;;;5011597;28;20202;-61
2022/09/02 06:04:01;;;;;;;1.48;1.38;;;13.60;1.00;;;;;;5001362;28;20202;-61
2022/09/02 06:06:28;;;;;;;1.85;1.75;;;13.80;1.00;;;;;;5005841;28;20314;-61
2022/09/02 06:08:55;;;;;;;3.58;1.75;;;13.60;1.00;;;;;;4992856;28;20209;-61
2022/09/02 06:11:22;;;;;;;2.00;1.50;;;13.70;1.00;;;;;;4999724;28;20727;-61
2022/09/02 06:13:50;;;;;;;2.25;1.20;;;13.70;1.00;;;;;;4999365;28;20205;-61
2022/09/02 06:16:20;;;;;;;1.48;1.35;;;13.80;1.00;;;;;;5008349;28;20574;-62
2022/09/02 06:18:48;;;;;;;1.55;1.45;;;14.00;1.00;;;;;;5005049;28;20226;-61
2022/09/02 06:21:16;;;;;;;2.05;1.60;;;13.90;1.00;;;;;;5001369;28;20220;-62
2022/09/02 06:23:43;;;;;;;3.20;1.65;;;14.00;1.00;;;;;;5011173;28;20214;-61
2022/09/02 06:26:12;;;;;;;2.25;1.45;;;14.00;99.90;;;;;;4983452;28;20226;-61
2022/09/02 06:28:39;;;;;;;1.33;1.17;;;14.00;99.90;;;;;;4994426;28;20217;-61
2022/09/02 06:31:09;;;;;;;1.55;1.45;;;14.00;99.90;;;;;;5004710;28;20911;-61
2022/09/02 06:33:37;;;;;;;3.00;1.40;;;14.10;1.00;;;;;;5007946;28;20738;-61
2022/09/02 06:36:06;;;;;;;3.03;1.35;;;14.30;1.00;;;;;;4995169;28;20753;-61
2022/09/02 06:38:37;;;;;;;1.85;1.60;;;14.20;1.00;;;;;;5011531;28;20210;-62
2022/09/02 06:41:04;;;;;;;2.25;1.40;;;14.20;99.90;;;;;;4981539;28;20226;-61
2022/09/02 06:43:30;;;;;;;1.63;1.40;;;14.30;97.60;;;;;;5007702;28;20570;-61
2022/09/02 06:45:57;;;;;;;2.17;1.45;;;14.40;99.90;;;;;;4994931;28;20229;-61
2022/09/02 06:48:25;;;;;;;13.70;1.65;;;14.40;99.90;;;;;;4996603;28;20230;-61
2022/09/02 06:50:54;;;;;;;1.92;1.60;;;14.50;1.00;;;;;;5005083;28;20195;-61
2022/09/02 06:53:21;;;;;;;3.42;1.55;;;14.70;1.00;;;;;;4998108;28;20202;-61
2022/09/02 06:55:48;;;;;;;1.45;1.35;;;14.60;1.00;;;;;;4974395;28;20217;-61
2022/09/02 06:58:16;;;;;;;1.92;1.55;;;14.90;99.90;;;;;;5006446;28;20230;-61
2022/09/02 07:00:43;;;;;;;6.47;1.83;;;14.70;29.80;;;;;;4996311;28;20217;-61
2022/09/02 07:06:08;;;;;;;2.30;1.60;;;14.80;1.00;;;;;;5004503;28;20241;-61
2022/09/02 07:08:36;;;;;;;1.85;1.50;;;14.90;1.00;;;;;;5000159;28;20797;-62
2022/09/02 07:11:04;;;;;;;3.35;1.70;;;15.00;1.00;;;;;;4985008;28;20282;-61
2022/09/02 07:13:30;;;;;;;1.25;1.15;;;15.10;1.00;;;;;;5007008;28;20217;-61
2022/09/02 07:15:57;;;;;;;1.40;1.30;;;15.10;1.00;;;;;;5000766;28;20202;-61
2022/09/02 07:18:24;;;;;;;1.60;1.42;;;15.20;99.90;;;;;;5005471;28;20237;-61
2022/09/02 07:20:51;;;;;;;1.80;1.40;;;15.40;1.00;;;;;;5008850;28;20198;-61
2022/09/02 07:23:19;;;;;;;3.53;1.30;;;15.40;1.00;;;;;;4999590;28;20670;-62
2022/09/02 07:25:46;;;;;;;1.35;1.25;;;15.40;94.40;;;;;;5006629;28;20229;-61
2022/09/02 07:28:13;;;;;;;1.33;1.23;;;15.50;21.50;;;;;;4980071;28;20215;-61
2022/09/02 07:30:41;;;;;;;1.98;1.40;;;15.50;36.10;;;;;;4999327;28;20225;-62
2022/09/02 07:33:09;;;;;;;5.13;1.38;;;15.60;1.00;;;;;;5007030;28;20229;-61
2022/09/02 07:35:37;;;;;;;2.55;1.50;;;15.70;1.00;;;;;;5010300;28;20202;-61
2022/09/02 07:38:04;;;;;;;2.55;1.10;;;15.70;1.00;;;;;;5009069;28;20202;-61
2022/09/02 07:40:35;;;;;;;2.05;1.40;;;15.80;1.00;;;;;;4996520;28;20214;-62
2022/09/02 07:43:01;;;;;;;1.60;1.30;;;16.10;1.00;;;;;;4985126;28;20217;-62
2022/09/02 07:45:28;;;;;;;6.07;1.33;;;15.80;99.90;;;;;;4991436;28;20233;-61
2022/09/02 07:47:55;;;;;;;3.83;1.30;;;15.90;99.90;;;;;;5005302;28;20226;-62
2022/09/02 07:50:25;;;;;;;2.50;1.67;;;15.90;87.80;;;;;;5005234;28;20202;-62
2022/09/02 07:52:53;;;;;;;2.50;1.52;;;16.00;93.90;;;;;;5010895;28;20244;-61
2022/09/02 07:55:20;;;;;;;2.03;1.45;;;16.00;99.90;;;;;;4994308;28;20660;-62
2022/09/02 07:57:49;;;;;;;4.60;1.33;;;16.00;99.90;;;;;;4981229;28;20222;-62
2022/09/02 08:00:18;;;;;;;2.80;1.42;;;16.10;99.90;;;;;;5002818;28;20745;-61
2022/09/02 08:02:46;;;;;;;1.30;1.05;;;16.20;99.90;;;;;;4998188;28;20210;-61
2022/09/02 08:05:14;;;;;;;6.70;1.38;;;16.30;99.90;;;;;;5006618;28;20203;-61
2022/09/02 08:07:41;;;;;;;2.58;1.48;;;16.20;99.90;;;;;;5003868;28;20202;-61
2022/09/02 08:10:11;;;;;;;5.22;1.60;;;16.30;99.90;;;;;;4995579;28;20213;-61
2022/09/02 08:12:39;;;;;;;2.40;1.25;;;16.70;61.80;;;;;;5006422;28;20846;-61
2022/09/02 08:15:11;;;;;;;1.25;1.15;;;16.50;1.60;;;;;;4986354;28;20686;-61
2022/09/02 08:17:39;;;;;;;3.50;1.20;;;16.50;1.00;;;;;;4992125;28;20228;-61
2022/09/02 08:20:08;;;;;;;1.80;1.48;;;16.60;1.00;;;;;;5007442;28;20517;-61
2022/09/02 08:22:36;;;;;;;6.68;1.80;;;16.70;1.00;;;;;;5000652;28;20260;-61
2022/09/02 08:25:03;;;;;;;2.08;1.52;;;16.90;1.00;;;;;;4996929;28;20209;-62
2022/09/02 08:27:31;;;;;;;1.30;1.20;;;16.70;1.00;;;;;;5008920;28;20222;-62
2022/09/02 08:30:00;;;;;;;1.52;1.42;;;16.90;1.00;;;;;;4982556;28;20213;-62
2022/09/02 08:32:28;;;;;;;2.30;1.33;;;17.10;1.00;;;;;;4997164;28;20233;-61
2022/09/02 08:34:55;;;;;;;2.15;1.40;;;17.00;1.00;;;;;;5005871;28;20209;-61
2022/09/02 08:37:21;;;;;;;3.42;1.40;;;17.00;1.00;;;;;;5010991;28;20207;-61
2022/09/02 08:39:48;;;;;;;1.70;1.60;;;17.10;1.00;;;;;;4997500;28;20210;-62
2022/09/02 08:42:21;;;;;;;1.52;1.33;;;17.10;1.00;;;;;;5008392;28;20217;-61
2022/09/02 08:44:54;;;;;;;3.90;1.92;;;17.10;1.00;;;;;;4988047;28;20202;-61
2022/09/02 08:47:28;;;;;;;4.18;1.42;;;17.30;1.00;;;;;;4999682;28;20321;-61
2022/09/02 08:50:00;;;;;;;9.30;1.30;;;17.30;1.00;;;;;;5007580;28;20197;-62
2022/09/02 08:52:33;;;;;;;2.42;1.35;;;17.30;1.00;;;;;;5011254;28;20224;-61
2022/09/02 08:55:01;;;;;;;4.88;1.27;;;17.40;1.00;;;;;;5011777;28;20198;-62
2022/09/02 08:57:28;;;;;;;3.22;1.50;;;17.50;99.90;;;;;;5003567;28;20237;-62
2022/09/02 08:59:59;;;;;;;3.67;1.50;;;17.50;99.90;;;;;;4987649;28;25755;-62
2022/09/02 09:02:34;;;;;;;3.75;1.40;;;14.90;99.90;;;;;;5004981;28;20210;-62
2022/09/02 09:05:19;;;;;;;2.25;1.48;;;17.70;99.90;;;;;;5007440;28;20719;-61
2022/09/02 09:07:58;;;;;;;3.95;1.50;;;17.80;99.90;;;;;;5012703;28;20317;-62
2022/09/02 09:10:31;;;;;;;2.85;1.40;;;17.70;99.90;;;;;;5011432;28;20884;-62
2022/09/02 09:13:14;;;;;;;1.42;1.33;;;17.90;99.90;;;;;;5004849;28;20210;-62
2022/09/02 09:15:48;;;;;;;4.55;1.38;;;18.00;99.90;;;;;;4994648;28;20228;-62
2022/09/02 09:18:18;;;;;;;1.20;1.10;;;18.00;19.50;;;;;;5003335;28;20206;-61
2022/09/02 09:20:47;;;;;;;3.63;1.40;;;18.00;3.00;;;;;;5009462;28;20213;-62
2022/09/02 09:23:29;;;;;;;1.95;1.30;;;18.10;1.00;;;;;;5008794;28;20197;-61
2022/09/02 09:26:06;;;;;;;1.13;1.02;;;18.40;1.00;;;;;;5002181;28;20237;-61
2022/09/02 09:28:40;;;;;;;3.58;1.15;;;18.20;1.00;;;;;;4999708;28;20205;-62
2022/09/02 09:31:11;;;;;;;4.18;1.40;;;18.40;1.00;;;;;;4988358;28;20289;-62
2022/09/02 09:33:38;;;;;;;2.63;1.55;;;18.40;1.00;;;;;;4999049;28;20233;-61
2022/09/02 09:36:08;;;;;;;2.03;1.20;;;18.60;1.00;;;;;;5006657;28;20195;-61
2022/09/02 09:38:37;;;;;;;2.10;1.20;;;18.40;1.00;;;;;;5008086;28;20286;-61
2022/09/02 09:41:15;;;;;;;2.05;1.30;;;18.70;1.00;;;;;;5007214;28;20199;-61
2022/09/02 09:43:42;;;;;;;5.72;1.30;;;18.60;1.00;;;;;;4996890;28;20214;-61
2022/09/02 09:46:26;;;;;;;3.03;1.40;;;18.70;1.00;;;;;;4987782;28;20226;-61
2022/09/02 09:48:53;;;;;;;1.45;1.33;;;18.60;1.00;;;;;;4997252;28;20226;-61
2022/09/02 09:51:21;;;;;;;1.85;1.50;;;18.80;1.00;;;;;;5009625;28;20220;-61
2022/09/02 09:53:48;;;;;;;4.93;1.83;;;18.70;1.00;;;;;;5007895;28;20660;-62
2022/09/02 09:56:31;;;;;;;2.92;1.38;;;18.90;1.00;;;;;;5004956;28;20229;-61
2022/09/02 09:58:58;;;;;;;3.33;1.20;;;18.90;1.00;;;;;;4999329;28;20675;-61
2022/09/02 10:01:28;;;;;;;1.90;1.75;;;19.10;99.90;;;;;;4982000;28;20211;-61
2022/09/02 10:03:56;;;;;;;2.13;1.13;;;19.20;99.90;;;;;;5003143;28;20209;-62
2022/09/02 10:06:36;;;;;;;3.88;1.40;;;19.20;99.90;;;;;;5002829;28;20222;-61
2022/09/02 10:09:05;;;;;;;3.75;1.50;;;19.20;99.90;;;;;;5006811;28;20664;-62
2022/09/02 10:11:34;;;;;;;5.18;1.38;;;19.20;99.90;;;;;;5008684;28;20205;-62
2022/09/02 10:14:04;;;;;;;1.45;1.35;;;19.40;99.90;;;;;;5001789;28;20206;-62
2022/09/02 10:16:48;;;;;;;2.88;1.35;;;19.40;99.90;;;;;;5006976;28;20321;-62
2022/09/02 10:19:26;;;;;;;6.68;1.63;;;20.90;99.90;;;;;;4977723;28;20735;-61
2022/09/02 10:22:25;;;;;;;3.78;1.52;;;19.80;99.90;;;;;;5005480;28;20568;-62
2022/09/02 10:25:08;;;;;;;3.10;1.42;;;19.70;99.90;;;;;;4995468;28;20743;-62
2022/09/02 10:27:43;;;;;;;1.83;1.23;;;19.70;99.90;;;;;;5005973;28;20249;-61
2022/09/02 10:30:17;;;;;;;1.02;1.00;;;19.70;99.90;;;;;;4991915;28;20225;-61
2022/09/02 10:33:01;;;;;;;2.15;1.33;;;19.80;99.90;;;;;;4985714;28;20229;-61
2022/09/02 10:35:37;;;;;;;1.30;1.20;;;19.90;99.90;;;;;;4999687;28;20206;-62
2022/09/02 10:38:24;;;;;;;8.57;1.20;;;19.90;99.90;;;;;;5001502;28;20691;-62
2022/09/02 10:40:55;;;;;;;1.10;0.98;;;20.00;99.90;;;;;;5006749;28;20217;-62
2022/09/02 10:43:33;;;;;;;1.67;1.02;;;18.40;99.90;;;;;;5008973;28;20205;-62
2022/09/02 10:46:05;;;;;;;1.33;1.23;;;20.20;99.90;;;;;;4994918;28;20337;-62
2022/09/02 10:48:44;;;;;;;1.85;1.25;;;20.10;99.90;;;;;;4985089;28;20237;-62
2022/09/02 10:51:19;;;;;;;1.13;1.00;;;20.20;99.90;;;;;;4991080;28;20981;-61
2022/09/02 10:54:08;;;;;;;1.15;1.00;;;20.10;99.90;;;;;;5007429;28;20198;-62
2022/09/02 10:56:41;;;;;;;1.40;1.20;;;20.20;99.90;;;;;;5001937;28;20708;-62
2022/09/02 10:59:11;;;;;;;1.17;1.05;;;20.10;99.90;;;;;;5000998;28;20288;-62
2022/09/02 11:01:45;;;;;;;2.00;1.10;;;19.90;94.10;;;;;;4996803;28;20213;-62
2022/09/02 11:04:18;;;;;;;1.95;1.15;;;19.90;75.10;;;;;;4978538;28;20266;-62
2022/09/02 11:06:47;;;;;;;2.72;1.15;;;20.00;99.90;;;;;;4993478;28;20237;-63
2022/09/02 11:09:27;;;;;;;1.45;1.17;;;20.00;93.30;;;;;;5001026;28;20198;-62
2022/09/02 11:11:59;;;;;;;3.85;1.05;;;19.90;45.60;;;;;;5005033;28;20598;-62
2022/09/02 11:14:31;;;;;;;1.30;1.20;;;19.90;36.90;;;;;;5011156;28;20289;-62
2022/09/02 11:17:02;;;;;;;2.17;1.00;;;20.00;50.20;;;;;;4997624;28;21041;-62
2022/09/02 11:19:36;;;;;;;1.30;1.20;;;20.20;78.00;;;;;;4982861;28;20210;-62
2022/09/02 11:22:11;;;;;;;1.55;1.10;;;20.20;16.90;;;;;;5001199;28;20209;-62
2022/09/02 11:24:44;;;;;;;1.10;1.00;;;20.10;51.70;;;;;;5010088;28;20198;-62
2022/09/02 11:27:17;;;;;;;1.13;1.00;;;20.10;1.00;;;;;;5003399;28;20234;-62
2022/09/02 11:29:54;;;;;;;1.48;0.90;;;20.10;14.70;;;;;;5009493;28;20626;-61
2022/09/02 11:32:29;;;;;;;7.55;1.45;;;20.10;15.30;;;;;;4997147;28;20293;-62
2022/09/02 11:34:59;;;;;;;1.48;1.00;;;20.70;99.90;;;;;;4995221;28;20281;-63
2022/09/02 11:37:34;;;;;;;3.38;1.55;;;20.70;1.00;;;;;;4998988;28;20768;-63
2022/09/02 11:40:08;;;;;;;2.95;1.27;;;20.70;1.00;;;;;;4994335;28;20216;-61
2022/09/02 11:42:50;;;;;;;1.58;1.23;;;20.80;1.00;;;;;;5001139;28;20203;-62
2022/09/02 11:45:31;;;;;;;4.47;1.17;;;20.90;1.00;;;;;;4989789;28;20256;-62
2022/09/02 11:48:22;;;;;;;3.33;1.20;;;21.00;1.00;;;;;;4994836;28;20516;-61
2022/09/02 11:51:05;;;;;;;1.42;1.02;;;20.20;1.00;;;;;;4971106;28;21251;-61
2022/09/02 11:53:37;;;;;;;2.95;1.00;;;21.10;1.00;;;;;;5005004;28;20919;-62
2022/09/02 11:56:11;;;;;;;2.88;1.25;;;21.00;1.00;;;;;;4995849;28;20289;-62
2022/09/02 11:58:40;;;;;;;3.85;1.20;;;21.20;1.00;;;;;;4986660;28;20601;-62
2022/09/02 12:01:22;;;;;;;3.67;1.25;;;21.20;1.00;;;;;;4997583;28;20214;-62
2022/09/02 12:03:54;;;;;;;2.70;1.02;;;21.20;1.00;;;;;;4978043;28;20221;-62
2022/09/02 12:06:22;;;;;;;2.88;1.30;;;21.00;1.00;;;;;;4982354;28;20207;-60
2022/09/02 12:09:09;;;;;;;2.50;1.42;;;21.20;1.00;;;;;;4984144;28;20209;-62
2022/09/02 12:11:53;;;;;;;3.00;1.38;;;21.30;1.00;;;;;;4995915;28;20671;-63
2022/09/02 12:15:04;;;;;;;4.63;1.40;;;21.30;1.00;;;;;;5006227;28;20218;-62
2022/09/02 12:17:38;;;;;;;1.90;1.40;;;21.40;1.00;;;;;;5002443;28;20303;-62
2022/09/02 12:20:07;;;;;;;2.40;1.30;;;21.40;1.00;;;;;;4986310;28;20221;-61
2022/09/02 12:22:40;;;;;;;5.63;1.30;;;21.50;1.00;;;;;;4972573;28;20218;-62
2022/09/02 12:25:41;;;;;;;4.90;1.65;;;21.50;1.00;;;;;;4987797;28;21589;-62
2022/09/02 12:28:29;;;;;;;5.10;1.70;;;21.50;1.00;;;;;;5004563;28;20734;-62
2022/09/02 12:31:14;;;;;;;1.95;1.63;;;21.50;1.00;;;;;;5005772;28;20355;-61
2022/09/02 12:33:43;;;;;;;3.13;1.58;;;21.50;1.00;;;;;;4988089;28;20262;-62
2022/09/02 12:36:47;;;;;;;2.13;1.60;;;21.50;1.00;;;;;;4995823;28;20203;-63
2022/09/02 12:39:52;;;;;;;2.25;1.90;;;21.30;1.00;;;;;;4954113;28;20230;-61
2022/09/02 12:42:26;;;;;;;2.88;2.00;;;21.50;1.00;;;;;;4990275;28;20238;-61
2022/09/02 12:45:02;;;;;;;2.40;2.05;;;21.50;1.00;;;;;;4981475;28;20597;-61
2022/09/02 12:47:40;;;;;;;2.90;2.40;;;21.50;1.00;;;;;;5002780;28;20226;-61
2022/09/02 12:50:12;;;;;;;1.92;1.73;;;21.70;1.00;;;;;;4991674;28;20218;-61
2022/09/02 12:52:44;;;;;;;4.88;1.88;;;21.70;1.00;;;;;;4975557;28;20699;-61
2022/09/02 12:55:18;;;;;;;3.28;1.58;;;21.70;1.00;;;;;;4983678;28;20253;-62
2022/09/02 12:57:50;;;;;;;1.88;1.67;;;21.60;1.00;;;;;;4996209;28;20226;-62
2022/09/02 13:00:29;;;;;;;3.25;1.60;;;21.80;1.00;;;;;;4987217;28;20276;-62
2022/09/02 13:03:08;;;;;;;1.40;1.30;;;21.70;1.00;;;;;;5001670;28;20317;-62
2022/09/02 13:05:50;;;;;;;3.78;1.40;;;21.80;1.00;;;;;;4986281;28;20205;-63
2022/09/02 13:08:44;;;;;;;2.53;1.50;;;21.50;1.00;;;;;;4969147;28;20233;-61
2022/09/02 13:11:43;;;;;;;1.63;1.40;;;21.70;1.00;;;;;;4993512;28;20213;-61
2022/09/02 13:14:29;;;;;;;1.98;1.65;;;21.80;1.00;;;;;;4987236;28;20214;-61
2022/09/02 13:17:19;;;;;;;1.67;1.23;;;21.80;1.00;;;;;;4993656;28;20209;-62
2022/09/02 13:20:13;;;;;;;1.40;1.20;;;21.80;1.00;;;;;;4991470;28;20726;-63
2022/09/02 13:23:04;;;;;;;3.13;1.10;;;24.30;1.00;;;;;;4981873;28;20226;-63